createdAt,value
2023-09-27T00:00:59.898Z,25.07
2023-09-27T00:02:00.005Z,25.06
2023-09-27T00:02:57.619Z,25.10
2023-09-27T00:03:57.714Z,25.07
2023-09-27T00:04:58.674Z,25.04
2023-09-27T00:05:57.675Z,24.96
2023-09-27T00:06:56.709Z,24.96
2023-09-27T00:07:56.229Z,24.92
2023-09-27T00:08:55.405Z,24.89
2023-09-27T00:09:53.561Z,24.87
2023-09-27T00:11:00.029Z,24.86
2023-09-27T00:11:56.939Z,24.82
2023-09-27T00:12:57.613Z,24.73
2023-09-27T00:13:56.425Z,24.67
2023-09-27T00:14:56.195Z,24.70
2023-09-27T00:15:56.303Z,24.64
2023-09-27T00:16:54.982Z,24.46
2023-09-27T00:17:53.638Z,24.51
2023-09-27T00:18:52.195Z,24.55
2023-09-27T00:19:51.955Z,24.57
2023-09-27T00:20:55.881Z,24.54
2023-09-27T00:21:55.007Z,24.48
2023-09-27T00:22:54.833Z,24.46
2023-09-27T00:23:54.840Z,24.47
2023-09-27T00:24:54.114Z,24.48
2023-09-27T00:25:54.375Z,24.47
2023-09-27T00:26:55.220Z,24.48
2023-09-27T00:27:54.021Z,24.47
2023-09-27T00:28:53.698Z,24.5
2023-09-27T00:29:54.192Z,24.45
2023-09-27T00:30:55.855Z,24.45
2023-09-27T00:31:55.103Z,24.44
2023-09-27T00:32:55.064Z,24.43
2023-09-27T00:33:54.261Z,24.40
2023-09-27T00:34:54.160Z,24.39
2023-09-27T00:35:54.835Z,24.38
2023-09-27T00:36:53.757Z,24.38
2023-09-27T00:37:54.160Z,24.36
2023-09-27T00:38:53.948Z,24.38
2023-09-27T00:39:54.278Z,24.38
2023-09-27T00:40:57.959Z,24.35
2023-09-27T00:41:56.358Z,24.31
2023-09-27T00:42:55.274Z,24.30
2023-09-27T00:43:54.825Z,24.29
2023-09-27T00:44:54.298Z,24.29
2023-09-27T00:45:56.994Z,24.30
2023-09-27T00:46:56.477Z,24.31
2023-09-27T00:47:55.806Z,24.30
2023-09-27T00:48:55.363Z,24.27
2023-09-27T00:49:54.437Z,24.26
2023-09-27T00:50:56.369Z,24.26
2023-09-27T00:51:55.551Z,24.27
2023-09-27T00:52:54.442Z,24.26
2023-09-27T00:53:54.074Z,24.23
2023-09-27T00:54:53.930Z,24.20
2023-09-27T00:55:54.607Z,24.19
2023-09-27T00:56:55.435Z,24.15
2023-09-27T00:57:55.163Z,24.13
2023-09-27T00:58:53.559Z,24.12
2023-09-27T00:59:53.569Z,24.08
2023-09-27T01:00:57.030Z,24.03
2023-09-27T01:01:56.119Z,24
2023-09-27T01:02:55.816Z,23.96
2023-09-27T01:03:56.231Z,23.95
2023-09-27T01:04:53.510Z,23.92
2023-09-27T01:05:54.658Z,23.89
2023-09-27T01:06:54.432Z,23.76
2023-09-27T01:07:54.108Z,23.83
2023-09-27T01:08:54.131Z,23.79
2023-09-27T01:09:54.452Z,23.75
2023-09-27T01:10:58.500Z,23.72
2023-09-27T01:11:56.804Z,23.71
2023-09-27T01:12:54.903Z,23.68
2023-09-27T01:13:54.337Z,23.65
2023-09-27T01:14:55.554Z,23.59
2023-09-27T01:15:55.365Z,23.57
2023-09-27T01:16:56.785Z,23.54
2023-09-27T01:17:57.276Z,23.52
2023-09-27T01:18:58.432Z,23.51
2023-09-27T01:19:57.459Z,23.48
2023-09-27T01:21:02.717Z,23.44
2023-09-27T01:21:55.902Z,23.44
2023-09-27T01:22:56.469Z,23.42
2023-09-27T01:23:56.796Z,23.38
2023-09-27T01:24:57.634Z,23.35
2023-09-27T01:25:59.469Z,23.30
2023-09-27T01:26:59.210Z,23.29
2023-09-27T01:27:57.100Z,23.27
2023-09-27T01:28:58.734Z,23.21
2023-09-27T01:29:57.582Z,23.20
2023-09-27T01:30:58.326Z,23.22
2023-09-27T01:31:56.858Z,23.24
2023-09-27T01:32:56.290Z,23.25
2023-09-27T01:33:51.852Z,23.29
2023-09-27T01:34:51.752Z,23.31
2023-09-27T01:35:51.382Z,23.29
2023-09-27T01:36:51.563Z,23.29
2023-09-27T01:37:52.262Z,23.29
2023-09-27T01:38:52.410Z,23.32
2023-09-27T01:39:52.268Z,23.32
2023-09-27T01:40:55.439Z,23.30
2023-09-27T01:41:54.418Z,23.29
2023-09-27T01:42:53.943Z,23.25
2023-09-27T01:43:52.406Z,23.20
2023-09-27T01:44:52.798Z,23.19
2023-09-27T01:45:53.369Z,23.16
2023-09-27T01:46:53.528Z,23.15
2023-09-27T01:47:52.777Z,23.17
2023-09-27T01:48:53.734Z,23.18
2023-09-27T01:49:53.871Z,23.17
2023-09-27T01:50:53.602Z,23.19
2023-09-27T01:51:53.381Z,23.18
2023-09-27T01:52:53.501Z,23.18
2023-09-27T01:53:52.934Z,23.09
2023-09-27T01:54:52.813Z,23.09
2023-09-27T01:55:52.589Z,23.10
2023-09-27T01:56:52.895Z,23.11
2023-09-27T01:57:53.537Z,23.10
2023-09-27T01:58:54.622Z,23.05
2023-09-27T01:59:53.708Z,23.03
2023-09-27T02:00:55.838Z,23
2023-09-27T02:01:55.657Z,22.98
2023-09-27T02:02:55.324Z,22.97
2023-09-27T02:03:54.715Z,23
2023-09-27T02:04:55.858Z,22.97
2023-09-27T02:05:56.154Z,22.97
2023-09-27T02:06:56.862Z,22.97
2023-09-27T02:07:57.601Z,22.93
2023-09-27T02:08:58.206Z,22.90
2023-09-27T02:09:55.373Z,22.90
2023-09-27T02:11:00.374Z,22.89
2023-09-27T02:11:58.030Z,22.90
2023-09-27T02:12:56.113Z,22.92
2023-09-27T02:13:55.637Z,22.89
2023-09-27T02:14:56.377Z,22.86
2023-09-27T02:15:56.119Z,22.84
2023-09-27T02:16:55.782Z,22.86
2023-09-27T02:17:55.461Z,22.86
2023-09-27T02:18:55.847Z,22.87
2023-09-27T02:19:55.166Z,22.86
2023-09-27T02:20:58.379Z,22.85
2023-09-27T02:21:54.963Z,22.86
2023-09-27T02:22:54.958Z,22.82
2023-09-27T02:23:55.812Z,22.80
2023-09-27T02:24:54.917Z,22.79
2023-09-27T02:25:55.807Z,22.77
2023-09-27T02:26:55.838Z,22.77
2023-09-27T02:27:55.604Z,22.72
2023-09-27T02:28:56.226Z,22.72
2023-09-27T02:29:55.753Z,22.70
2023-09-27T02:30:57.109Z,22.67
2023-09-27T02:31:54.381Z,22.64
2023-09-27T02:32:55.865Z,22.64
2023-09-27T02:33:54.509Z,22.52
2023-09-27T02:34:55.072Z,22.54
2023-09-27T02:35:56.435Z,22.52
2023-09-27T02:36:56.626Z,22.52
2023-09-27T02:37:54.760Z,22.50
2023-09-27T02:38:54.869Z,22.49
2023-09-27T02:39:55.885Z,22.48
2023-09-27T02:40:59.494Z,22.46
2023-09-27T02:41:57.867Z,22.42
2023-09-27T02:42:56.290Z,22.39
2023-09-27T02:43:54.151Z,22.35
2023-09-27T02:44:55.841Z,22.35
2023-09-27T02:45:57.639Z,22.31
2023-09-27T02:46:55.445Z,22.28
2023-09-27T02:47:56.215Z,22.28
2023-09-27T02:48:55.372Z,22.26
2023-09-27T02:49:56.031Z,22.26
2023-09-27T02:50:57.432Z,22.27
2023-09-27T02:51:55.397Z,22.26
2023-09-27T02:52:55.751Z,22.29
2023-09-27T02:53:54.850Z,22.27
2023-09-27T02:54:56.055Z,22.24
2023-09-27T02:55:56.194Z,22.21
2023-09-27T02:56:56.765Z,22.18
2023-09-27T02:57:57.008Z,22.16
2023-09-27T02:58:56.788Z,22.12
2023-09-27T02:59:56.632Z,22.11
2023-09-27T03:01:02.490Z,22.09
2023-09-27T03:01:54.118Z,22.12
2023-09-27T03:02:52.280Z,22.13
2023-09-27T03:03:48.935Z,22.13
2023-09-27T03:04:52.868Z,22.13
2023-09-27T03:05:55.033Z,22.12
2023-09-27T03:06:56.033Z,22.13
2023-09-27T03:07:56.789Z,22.15
2023-09-27T03:08:57.401Z,22.16
2023-09-27T03:09:57.349Z,22.15
2023-09-27T03:11:03.644Z,22.11
2023-09-27T03:11:57.401Z,22.10
2023-09-27T03:12:57.338Z,22.10
2023-09-27T03:13:51.753Z,22.11
2023-09-27T03:14:52.724Z,22.12
2023-09-27T03:15:53.986Z,22.10
2023-09-27T03:16:54.172Z,22.12
2023-09-27T03:17:55.775Z,22.13
2023-09-27T03:18:56.461Z,22.12
2023-09-27T03:19:56.913Z,22.12
2023-09-27T03:21:00.556Z,22.10
2023-09-27T03:21:58.995Z,22.11
2023-09-27T03:22:56.571Z,22.11
2023-09-27T03:23:57.376Z,22.11
2023-09-27T03:24:57.575Z,22.09
2023-09-27T03:25:58.420Z,22.09
2023-09-27T03:26:58.226Z,22.05
2023-09-27T03:27:57.940Z,22.03
2023-09-27T03:28:56.702Z,22
2023-09-27T03:29:54.626Z,22
2023-09-27T03:31:01.343Z,22
2023-09-27T03:32:00.437Z,21.96
2023-09-27T03:32:59.024Z,21.92
2023-09-27T03:33:57.466Z,21.92
2023-09-27T03:34:57.431Z,21.90
2023-09-27T03:35:58.001Z,21.90
2023-09-27T03:36:57.740Z,21.89
2023-09-27T03:37:55.240Z,21.88
2023-09-27T03:38:54.521Z,21.90
2023-09-27T03:39:54.575Z,21.91
2023-09-27T03:40:59.536Z,21.89
2023-09-27T03:41:57.903Z,21.90
2023-09-27T03:42:57.396Z,21.92
2023-09-27T03:43:55.677Z,21.90
2023-09-27T03:44:55.839Z,21.90
2023-09-27T03:46:01.902Z,21.92
2023-09-27T03:46:58.265Z,21.90
2023-09-27T03:47:59.254Z,21.93
2023-09-27T03:48:59.066Z,21.90
2023-09-27T03:49:57.980Z,21.92
2023-09-27T03:51:05.331Z,21.89
2023-09-27T03:51:57.622Z,21.88
2023-09-27T03:53:00.675Z,21.90
2023-09-27T03:54:00.183Z,21.87
2023-09-27T03:54:59.251Z,21.86
2023-09-27T03:55:58.923Z,21.81
2023-09-27T03:56:58.854Z,21.78
2023-09-27T03:57:59.445Z,21.77
2023-09-27T03:58:59.539Z,21.77
2023-09-27T03:59:58.178Z,21.76
2023-09-27T04:01:05.180Z,21.73
2023-09-27T04:01:58.522Z,21.73
2023-09-27T04:02:58.313Z,21.71
2023-09-27T04:04:00.349Z,21.72
2023-09-27T04:05:01.281Z,21.70
2023-09-27T04:06:01.644Z,21.69
2023-09-27T04:07:01.460Z,21.68
2023-09-27T04:07:59.390Z,21.68
2023-09-27T04:09:01.805Z,21.69
2023-09-27T04:09:55.387Z,21.65
2023-09-27T04:11:09.976Z,21.65
2023-09-27T04:12:02.204Z,21.64
2023-09-27T04:12:57.222Z,21.63
2023-09-27T04:14:00.857Z,21.62
2023-09-27T04:15:04.218Z,21.65
2023-09-27T04:15:56.130Z,21.61
2023-09-27T04:16:58.390Z,21.63
2023-09-27T04:17:55.360Z,21.60
2023-09-27T04:18:59.766Z,21.58
2023-09-27T04:19:59.413Z,21.57
2023-09-27T04:21:09.188Z,21.56
2023-09-27T04:22:02.386Z,21.57
2023-09-27T04:22:55.764Z,21.55
2023-09-27T04:23:59.456Z,21.54
2023-09-27T04:25:01.765Z,21.53
2023-09-27T04:25:57.556Z,21.51
2023-09-27T04:26:59.332Z,21.54
2023-09-27T04:27:57.661Z,21.53
2023-09-27T04:28:59.325Z,21.53
2023-09-27T04:29:59.684Z,21.51
2023-09-27T04:31:05.786Z,21.51
2023-09-27T04:31:59.851Z,21.51
2023-09-27T04:33:02.960Z,21.50
2023-09-27T04:33:56.979Z,21.52
2023-09-27T04:34:59.146Z,21.51
2023-09-27T04:35:59.777Z,21.53
2023-09-27T04:36:59.699Z,21.54
2023-09-27T04:37:57.804Z,21.53
2023-09-27T04:38:57.689Z,21.54
2023-09-27T04:39:58.811Z,21.53
2023-09-27T04:41:05.208Z,21.54
2023-09-27T04:41:55.156Z,21.54
2023-09-27T04:42:56.697Z,21.54
2023-09-27T04:43:54.959Z,21.52
2023-09-27T04:44:57.978Z,21.49
2023-09-27T04:46:02.239Z,21.46
2023-09-27T04:46:54.638Z,21.43
2023-09-27T04:47:54.221Z,21.40
2023-09-27T04:48:54.333Z,21.36
2023-09-27T04:49:58.702Z,21.34
2023-09-27T04:51:01.352Z,21.31
2023-09-27T04:51:59.083Z,21.29
2023-09-27T04:52:58.503Z,21.27
2023-09-27T04:53:57.249Z,21.25
2023-09-27T04:54:58.985Z,21.25
2023-09-27T04:56:01.179Z,21.26
2023-09-27T04:57:01.669Z,21.29
2023-09-27T04:57:58.166Z,21.28
2023-09-27T04:58:55.344Z,21.29
2023-09-27T04:59:58.397Z,21.32
2023-09-27T05:01:08.159Z,21.29
2023-09-27T05:02:00.210Z,21.29
2023-09-27T05:03:02.394Z,21.29
2023-09-27T05:03:54.032Z,21.27
2023-09-27T05:04:57.867Z,21.25
2023-09-27T05:06:00.511Z,21.26
2023-09-27T05:07:01.852Z,21.23
2023-09-27T05:07:53.709Z,21.25
2023-09-27T05:08:56.180Z,21.23
2023-09-27T05:09:55.919Z,21.21
2023-09-27T05:11:00.714Z,21.20
2023-09-27T05:12:02.370Z,21.19
2023-09-27T05:12:59.439Z,21.18
2023-09-27T05:14:02.037Z,21.15
2023-09-27T05:14:58.830Z,21.16
2023-09-27T05:16:03.610Z,21.14
2023-09-27T05:16:56.460Z,21.09
2023-09-27T05:17:59.888Z,21.09
2023-09-27T05:19:01.196Z,21.08
2023-09-27T05:20:01.259Z,21.07
2023-09-27T05:21:08.273Z,21.06
2023-09-27T05:22:00.446Z,21.06
2023-09-27T05:23:02.032Z,21.05
2023-09-27T05:23:54.022Z,21.04
2023-09-27T05:24:58.477Z,21.04
2023-09-27T05:25:59.014Z,21.04
2023-09-27T05:27:03.222Z,21.05
2023-09-27T05:27:57.117Z,21.04
2023-09-27T05:29:02.171Z,21.05
2023-09-27T05:29:57.880Z,21.06
2023-09-27T05:31:09.953Z,21.04
2023-09-27T05:32:03.738Z,21.03
2023-09-27T05:32:55.966Z,21.03
2023-09-27T05:33:58.085Z,21.03
2023-09-27T05:34:56.880Z,21.04
2023-09-27T05:35:58.365Z,21.05
2023-09-27T05:37:00.088Z,21.07
2023-09-27T05:38:00.429Z,21.05
2023-09-27T05:39:00.810Z,21.07
2023-09-27T05:40:00.644Z,21.07
2023-09-27T05:41:09.619Z,21.09
2023-09-27T05:42:03.454Z,21.12
2023-09-27T05:42:59.848Z,21.13
2023-09-27T05:43:59.049Z,21.13
2023-09-27T05:45:03.872Z,21.15
2023-09-27T05:45:59.949Z,21.14
2023-09-27T05:47:05.541Z,21.14
2023-09-27T05:47:57.567Z,21.17
2023-09-27T05:49:01.897Z,21.20
2023-09-27T05:49:59.951Z,21.21
2023-09-27T05:51:05.964Z,21.26
2023-09-27T05:51:58.541Z,21.28
2023-09-27T05:53:02.957Z,21.29
2023-09-27T05:53:55.577Z,21.30
2023-09-27T05:54:58.937Z,21.36
2023-09-27T05:56:00.784Z,21.34
2023-09-27T05:57:01.336Z,21.38
2023-09-27T05:58:00.814Z,21.42
2023-09-27T05:59:01.257Z,21.46
2023-09-27T05:59:57.713Z,21.49
2023-09-27T06:01:09.443Z,21.54
2023-09-27T06:02:02.512Z,21.56
2023-09-27T06:02:58.456Z,21.55
2023-09-27T06:04:03.766Z,21.55
2023-09-27T06:04:56.368Z,21.61
2023-09-27T06:06:02.306Z,21.67
2023-09-27T06:06:57.663Z,21.76
2023-09-27T06:07:58.142Z,21.83
2023-09-27T06:08:59.907Z,21.88
2023-09-27T06:10:01.308Z,21.92
2023-09-27T06:11:16.010Z,21.98
2023-09-27T06:12:00.340Z,22.03
2023-09-27T06:13:11.144Z,22.10
2023-09-27T06:14:03.547Z,22.17
2023-09-27T06:15:00.982Z,22.21
2023-09-27T06:16:11.198Z,22.26
2023-09-27T06:17:01.869Z,22.29
2023-09-27T06:17:56.346Z,22.35
2023-09-27T06:18:58.935Z,22.35
2023-09-27T06:20:01.103Z,22.40
2023-09-27T06:21:11.505Z,22.45
2023-09-27T06:22:03.866Z,22.48
2023-09-27T06:22:56.991Z,22.53
2023-09-27T06:24:00.701Z,22.58
2023-09-27T06:25:02.678Z,22.63
2023-09-27T06:25:59.989Z,22.66
2023-09-27T06:27:05.820Z,22.72
2023-09-27T06:27:57.336Z,22.79
2023-09-27T06:29:02.708Z,22.85
2023-09-27T06:29:54.612Z,22.91
2023-09-27T06:31:04.709Z,22.95
2023-09-27T06:31:54.861Z,22.97
2023-09-27T06:33:01.041Z,22.97
2023-09-27T06:34:00.702Z,23.01
2023-09-27T06:35:03.627Z,23.04
2023-09-27T06:35:59.025Z,23.09
2023-09-27T06:37:05.485Z,23.11
2023-09-27T06:37:57.667Z,23.14
2023-09-27T06:39:04.545Z,23.18
2023-09-27T06:39:58.625Z,23.22
2023-09-27T06:41:10.934Z,23.29
2023-09-27T06:42:02.491Z,23.32
2023-09-27T06:42:58.434Z,23.35
2023-09-27T06:44:03.534Z,23.32
2023-09-27T06:44:58.177Z,23.34
2023-09-27T06:46:09.272Z,23.36
2023-09-27T06:47:02.371Z,23.39
2023-09-27T06:47:57.623Z,23.43
2023-09-27T06:49:03.033Z,23.46
2023-09-27T06:49:57.021Z,23.51
2023-09-27T06:51:07.397Z,23.54
2023-09-27T06:52:00.218Z,23.59
2023-09-27T06:53:21.327Z,23.64
2023-09-27T06:54:05.743Z,23.68
2023-09-27T06:54:55.728Z,23.75
2023-09-27T06:56:04.349Z,23.77
2023-09-27T06:56:57.849Z,23.79
2023-09-27T06:58:00.439Z,23.84
2023-09-27T06:59:02.518Z,23.90
2023-09-27T06:59:55.867Z,23.88
2023-09-27T07:01:05.184Z,23.92
2023-09-27T07:01:55.010Z,23.97
2023-09-27T07:03:02.242Z,23.99
2023-09-27T07:03:54.826Z,23.97
2023-09-27T07:04:58.539Z,23.98
2023-09-27T07:06:05.572Z,24.10
2023-09-27T07:06:59.523Z,24.11
2023-09-27T07:08:08.336Z,24.05
2023-09-27T07:09:02.242Z,24.07
2023-09-27T07:09:55.775Z,24.07
2023-09-27T07:11:10.015Z,24.09
2023-09-27T07:12:07.975Z,24.06
2023-09-27T07:13:07.021Z,24.07
2023-09-27T07:13:58.603Z,24.04
2023-09-27T07:15:09.308Z,24.10
2023-09-27T07:16:03.085Z,24.04
2023-09-27T07:17:01.837Z,23.99
2023-09-27T07:17:55.558Z,24.06
2023-09-27T07:19:04.175Z,24.05
2023-09-27T07:19:57.157Z,24.11
2023-09-27T07:21:08.641Z,24.18
2023-09-27T07:22:03.513Z,24.26
2023-09-27T07:22:57.731Z,24.35
2023-09-27T07:23:58.439Z,24.44
2023-09-27T07:25:02.001Z,24.51
2023-09-27T07:25:57.822Z,24.56
2023-09-27T07:27:02.452Z,24.67
2023-09-27T07:27:57.071Z,24.78
2023-09-27T07:29:01.744Z,24.83
2023-09-27T07:29:59.952Z,24.83
2023-09-27T07:31:09.360Z,24.85
2023-09-27T07:32:05.256Z,24.95
2023-09-27T07:33:00.379Z,24.99
2023-09-27T07:34:05.938Z,25.06
2023-09-27T07:34:59.612Z,25.17
2023-09-27T07:36:10.019Z,25.23
2023-09-27T07:37:02.450Z,25.31
2023-09-27T07:37:57.491Z,25.36
2023-09-27T07:39:01.832Z,25.41
2023-09-27T07:39:56.326Z,25.47
2023-09-27T07:41:05.581Z,25.56
2023-09-27T07:41:57.882Z,25.68
2023-09-27T07:43:01.631Z,25.73
2023-09-27T07:44:03.426Z,25.79
2023-09-27T07:44:58.645Z,25.85
2023-09-27T07:46:11.697Z,25.88
2023-09-27T07:47:08.044Z,25.93
2023-09-27T07:47:58.717Z,26
2023-09-27T07:49:04.351Z,26.01
2023-09-27T07:49:55.886Z,26.04
2023-09-27T07:51:03.578Z,26.05
2023-09-27T07:51:55.008Z,26.04
2023-09-27T07:52:59.397Z,26.10
2023-09-27T07:53:59.290Z,26.16
2023-09-27T07:55:02.125Z,26.21
2023-09-27T07:55:57.241Z,26.26
2023-09-27T07:57:02.073Z,26.29
2023-09-27T07:57:55.749Z,26.29
2023-09-27T07:58:56.713Z,26.28
2023-09-27T08:00:00.639Z,26.35
2023-09-27T08:01:10.141Z,26.45
2023-09-27T08:02:02.599Z,26.46
2023-09-27T08:02:59.595Z,26.46
2023-09-27T08:04:02.866Z,26.47
2023-09-27T08:04:57.849Z,26.51
2023-09-27T08:06:11.224Z,26.51
2023-09-27T08:07:04.091Z,26.52
2023-09-27T08:07:59.589Z,26.52
2023-09-27T08:09:03.846Z,26.54
2023-09-27T08:09:55.381Z,26.53
2023-09-27T08:11:17.858Z,26.55
2023-09-27T08:12:13.855Z,26.58
2023-09-27T08:13:14.102Z,26.62
2023-09-27T08:13:59.107Z,26.66
2023-09-27T08:15:19.633Z,26.67
2023-09-27T08:16:18.508Z,26.67
2023-09-27T08:17:05.418Z,26.70
2023-09-27T08:18:01.249Z,26.71
2023-09-27T08:19:10.409Z,26.72
2023-09-27T08:19:58.683Z,26.74
2023-09-27T08:21:11.963Z,26.75
2023-09-27T08:22:03.749Z,26.75
2023-09-27T08:22:57.085Z,26.75
2023-09-27T08:24:00.257Z,26.80
2023-09-27T08:25:04.729Z,26.78
2023-09-27T08:25:59.525Z,26.78
2023-09-27T08:27:08.515Z,26.78
2023-09-27T08:28:02.446Z,26.78
2023-09-27T08:28:57.540Z,26.78
2023-09-27T08:29:59.653Z,26.68
2023-09-27T08:31:08.588Z,26.57
2023-09-27T08:32:02.676Z,26.48
2023-09-27T08:32:57.996Z,26.54
2023-09-27T08:33:59.942Z,26.52
2023-09-27T08:35:05.220Z,26.41
2023-09-27T08:36:00.857Z,26.38
2023-09-27T08:37:12.946Z,26.47
2023-09-27T08:38:04.274Z,26.52
2023-09-27T08:39:02.415Z,26.57
2023-09-27T08:39:58.705Z,26.67
2023-09-27T08:41:18.899Z,26.71
2023-09-27T08:42:18.310Z,26.77
2023-09-27T08:43:14.804Z,26.86
2023-09-27T08:44:01.698Z,26.89
2023-09-27T08:45:16.458Z,27.04
2023-09-27T08:46:22.794Z,27.14
2023-09-27T08:47:14.572Z,27.14
2023-09-27T08:48:06.416Z,27.10
2023-09-27T08:49:08.799Z,27.13
2023-09-27T08:50:18.920Z,27.25
2023-09-27T08:51:19.610Z,27.44
2023-09-27T08:52:14.392Z,27.48
2023-09-27T08:53:03.433Z,27.52
2023-09-27T08:54:06.598Z,27.59
2023-09-27T08:55:02.754Z,27.77
2023-09-27T08:56:07.419Z,27.81
2023-09-27T08:57:13.897Z,27.87
2023-09-27T08:57:58.691Z,28.01
2023-09-27T08:59:14.217Z,28.12
2023-09-27T09:00:10.701Z,28.27
2023-09-27T09:01:17.981Z,28.39
2023-09-27T09:02:13.674Z,28.44
2023-09-27T09:03:01.004Z,28.47
2023-09-27T09:04:18.523Z,28.50
2023-09-27T09:05:02.560Z,28.52
2023-09-27T09:06:07.747Z,28.51
2023-09-27T09:07:20.737Z,28.42
2023-09-27T09:08:01.529Z,28.47
2023-09-27T09:09:20.031Z,28.63
2023-09-27T09:10:12.696Z,28.78
2023-09-27T09:11:26.434Z,28.85
2023-09-27T09:12:31.735Z,28.93
2023-09-27T09:13:40.423Z,28.97
2023-09-27T09:14:39.905Z,29.04
2023-09-27T09:16:02.468Z,29.14
2023-09-27T09:16:15.284Z,29.25
2023-09-27T09:17:38.956Z,29.27
2023-09-27T09:18:43.221Z,29.35
2023-09-27T09:19:48.006Z,29.44
2023-09-27T09:20:15.635Z,29.45
2023-09-27T09:22:01.045Z,29.49
2023-09-27T09:22:20.367Z,29.5
2023-09-27T09:23:37.419Z,29.51
2023-09-27T09:24:38.664Z,29.59
2023-09-27T09:25:46.752Z,29.62
2023-09-27T09:26:56.244Z,29.66
2023-09-27T09:27:23.071Z,29.65
2023-09-27T09:29:01.387Z,29.71
2023-09-27T09:29:32.236Z,29.62
2023-09-27T09:30:33.273Z,29.71
2023-09-27T09:32:08.000Z,29.58
2023-09-27T09:32:43.174Z,29.65
2023-09-27T09:33:34.026Z,29.65
2023-09-27T09:34:50.184Z,29.59
2023-09-27T09:35:55.889Z,29.54
2023-09-27T09:36:33.123Z,29.60
2023-09-27T09:37:54.065Z,29.60
2023-09-27T09:38:54.530Z,29.65
2023-09-27T09:39:28.781Z,29.73
2023-09-27T09:41:29.185Z,29.89
2023-09-27T09:41:55.964Z,29.79
2023-09-27T09:42:53.772Z,30.01
2023-09-27T09:43:53.977Z,30.14
2023-09-27T09:45:27.202Z,30.20
2023-09-27T09:46:02.586Z,30.23
2023-09-27T09:46:23.283Z,30.21
2023-09-27T09:47:34.615Z,30.25
2023-09-27T09:48:54.155Z,30.25
2023-09-27T09:50:20.214Z,30.29
2023-09-27T09:50:30.130Z,30.38
2023-09-27T09:51:39.166Z,30.55
2023-09-27T09:52:55.031Z,30.65
2023-09-27T09:53:59.376Z,30.68
2023-09-27T09:54:26.898Z,30.70
2023-09-27T09:56:28.768Z,30.79
2023-09-27T09:56:37.952Z,30.78
2023-09-27T09:57:27.709Z,30.82
2023-09-27T09:58:37.457Z,30.86
2023-09-27T09:59:45.264Z,31.00
2023-09-27T10:00:57.560Z,31.12
2023-09-27T10:01:31.003Z,31.24
2023-09-27T10:02:53.989Z,31.29
2023-09-27T10:03:41.736Z,31.41
2023-09-27T10:04:47.509Z,31.53
2023-09-27T10:06:06.093Z,31.67
2023-09-27T10:06:24.242Z,31.76
2023-09-27T10:07:36.534Z,31.84
2023-09-27T10:08:47.322Z,31.82
2023-09-27T10:09:58.388Z,31.90
2023-09-27T10:10:30.383Z,32.00
2023-09-27T10:12:14.160Z,32.13
2023-09-27T10:12:40.193Z,32.29
2023-09-27T10:14:25.600Z,32.45
2023-09-27T10:14:54.400Z,32.36
2023-09-27T10:15:53.303Z,32.56
2023-09-27T10:16:47.238Z,32.61
2023-09-27T10:18:01.397Z,32.67
2023-09-27T10:19:28.608Z,32.72
2023-09-27T10:20:04.610Z,32.91
2023-09-27T10:20:23.809Z,32.80
2023-09-27T10:21:39.131Z,33.01
2023-09-27T10:23:21.746Z,33.08
2023-09-27T10:23:51.584Z,33.20
2023-09-27T10:24:38.958Z,33.26
2023-09-27T10:26:14.154Z,33.35
2023-09-27T10:26:58.371Z,33.43
2023-09-27T10:27:56.004Z,33.40
2023-09-27T10:29:27.062Z,33.43
2023-09-27T10:30:10.560Z,33.50
2023-09-27T10:30:11.111Z,33.50
2023-09-27T10:31:37.789Z,33.56
2023-09-27T10:32:57.675Z,33.71
2023-09-27T10:34:20.944Z,33.76
2023-09-27T10:35:07.439Z,33.88
2023-09-27T10:35:26.577Z,33.82
2023-09-27T10:36:55.349Z,33.92
2023-09-27T10:37:34.819Z,33.96
2023-09-27T10:38:46.867Z,34.07
2023-09-27T10:39:53.993Z,34.18
2023-09-27T10:41:07.991Z,34.14
2023-09-27T10:42:23.192Z,34.11
2023-09-27T10:42:25.284Z,34.08
2023-09-27T10:43:46.253Z,34.13
2023-09-27T10:44:50.205Z,34.21
2023-09-27T10:46:03.077Z,34.25
2023-09-27T10:46:22.300Z,34.25
2023-09-27T10:47:44.588Z,34.20
2023-09-27T10:48:30.179Z,34.25
2023-09-27T10:49:55.422Z,34.40
2023-09-27T10:50:14.021Z,34.52
2023-09-27T10:51:53.378Z,34.59
2023-09-27T10:52:15.290Z,34.61
2023-09-27T10:53:48.720Z,34.75
2023-09-27T10:54:24.933Z,34.86
2023-09-27T10:55:29.283Z,34.98
2023-09-27T10:56:33.462Z,35.09
2023-09-27T10:57:34.899Z,35.09
2023-09-27T10:58:53.746Z,35.15
2023-09-27T10:58:54.788Z,35.31
2023-09-27T11:00:30.756Z,35.42
2023-09-27T11:01:35.756Z,35.47
2023-09-27T11:02:51.468Z,35.56
2023-09-27T11:02:54.959Z,35.62
2023-09-27T11:04:22.064Z,35.68
2023-09-27T11:05:14.291Z,35.70
2023-09-27T11:06:13.389Z,35.69
2023-09-27T11:06:58.821Z,35.75
2023-09-27T11:08:10.025Z,35.82
2023-09-27T11:09:03.712Z,35.91
2023-09-27T11:09:57.694Z,35.96
2023-09-27T11:11:11.691Z,36.00
2023-09-27T11:12:08.449Z,36.15
2023-09-27T11:13:02.667Z,36.18
2023-09-27T11:13:55.991Z,36.12
2023-09-27T11:14:58.146Z,36.20
2023-09-27T11:15:58.030Z,36.20
2023-09-27T11:16:57.777Z,36.23
2023-09-27T11:17:56.831Z,36.22
2023-09-27T11:18:58.952Z,36.27
2023-09-27T11:19:59.599Z,36.32
2023-09-27T11:21:06.176Z,36.37
2023-09-27T11:22:00.254Z,36.37
2023-09-27T11:22:59.824Z,36.43
2023-09-27T11:23:57.930Z,36.45
2023-09-27T11:25:00.449Z,36.52
2023-09-27T11:26:02.130Z,36.49
2023-09-27T11:27:00.529Z,36.39
2023-09-27T11:27:58.152Z,36.39
2023-09-27T11:34:02.658Z,36.31
2023-09-27T11:34:57.511Z,36.23
2023-09-27T11:36:02.207Z,36.18
2023-09-27T11:36:54.854Z,36.18
2023-09-27T11:37:58.701Z,36.20
2023-09-27T11:39:00.014Z,36.25
2023-09-27T11:39:59.897Z,36.36
2023-09-27T11:41:11.180Z,36.41
2023-09-27T11:42:05.501Z,36.49
2023-09-27T11:42:57.709Z,36.52
2023-09-27T11:43:59.762Z,36.54
2023-09-27T11:45:01.961Z,36.66
2023-09-27T11:45:58.469Z,36.79
2023-09-27T11:47:01.917Z,36.86
2023-09-27T11:47:56.441Z,36.90
2023-09-27T11:49:00.075Z,36.96
2023-09-27T11:49:59.125Z,37.02
2023-09-27T11:51:05.392Z,37.12
2023-09-27T11:51:59.541Z,37.20
2023-09-27T11:53:02.821Z,37.24
2023-09-27T11:53:54.070Z,37.29
2023-09-27T11:55:00.387Z,37.33
2023-09-27T11:56:02.101Z,37.29
2023-09-27T11:56:56.671Z,37.29
2023-09-27T11:57:58.283Z,37.39
2023-09-27T11:58:59.984Z,37.47
2023-09-27T12:00:00.373Z,37.52
2023-09-27T12:01:08.667Z,37.54
2023-09-27T12:02:09.237Z,37.59
2023-09-27T12:02:57.857Z,37.59
2023-09-27T12:04:01.927Z,37.67
2023-09-27T12:04:57.108Z,37.62
2023-09-27T12:05:59.507Z,37.69
2023-09-27T12:06:59.848Z,37.77
2023-09-27T12:08:01.046Z,37.87
2023-09-27T12:09:05.705Z,37.86
2023-09-27T12:09:59.249Z,37.75
2023-09-27T12:11:10.938Z,37.65
2023-09-27T12:12:02.463Z,37.63
2023-09-27T12:12:59.100Z,37.62
2023-09-27T12:14:02.329Z,37.59
2023-09-27T12:14:56.696Z,37.58
2023-09-27T12:16:00.228Z,37.47
2023-09-27T12:17:00.644Z,37.45
2023-09-27T12:17:59.597Z,37.43
2023-09-27T12:19:01.938Z,37.45
2023-09-27T12:19:54.798Z,37.49
2023-09-27T12:21:02.749Z,37.59
2023-09-27T12:21:55.496Z,37.66
2023-09-27T12:22:57.876Z,37.64
2023-09-27T12:23:57.594Z,37.61
2023-09-27T12:24:59.737Z,37.68
2023-09-27T12:26:03.164Z,37.67
2023-09-27T12:26:57.599Z,37.70
2023-09-27T12:27:59.675Z,37.74
2023-09-27T12:29:01.666Z,37.61
2023-09-27T12:29:58.628Z,37.54
2023-09-27T12:31:03.860Z,37.52
2023-09-27T12:31:57.249Z,37.64
2023-09-27T12:33:03.355Z,37.85
2023-09-27T12:33:54.276Z,37.93
2023-09-27T12:34:58.992Z,37.76
2023-09-27T12:36:01.036Z,37.68
2023-09-27T12:37:02.369Z,37.89
2023-09-27T12:37:58.218Z,38.00
2023-09-27T12:39:02.780Z,38.02
2023-09-27T12:39:55.094Z,37.90
2023-09-27T12:41:02.871Z,37.84
2023-09-27T12:41:57.695Z,37.75
2023-09-27T12:43:00.690Z,37.79
2023-09-27T12:44:01.053Z,37.66
2023-09-27T12:45:02.257Z,37.59
2023-09-27T12:45:57.715Z,37.55
2023-09-27T12:47:00.774Z,37.58
2023-09-27T12:47:59.437Z,37.50
2023-09-27T12:49:00.011Z,37.31
2023-09-27T12:50:01.642Z,37.19
2023-09-27T12:51:00.639Z,37.21
2023-09-27T12:52:04.091Z,37.25
2023-09-27T12:52:58.269Z,37.40
2023-09-27T12:54:02.637Z,37.49
2023-09-27T12:54:55.686Z,37.47
2023-09-27T12:56:02.514Z,37.54
2023-09-27T12:56:56.131Z,37.72
2023-09-27T12:57:59.767Z,37.71
2023-09-27T12:59:01.460Z,37.75